createdAt,value
2018-06-28T00:00:02.016Z,99.90
2018-06-28T00:02:30.858Z,99.90
2018-06-28T00:04:59.490Z,99.90
2018-06-28T00:07:28.142Z,99.90
2018-06-28T00:09:56.786Z,99.90
2018-06-28T00:12:25.472Z,99.90
2018-06-28T00:14:54.117Z,99.90
2018-06-28T00:17:22.779Z,99.90
2018-06-28T00:19:51.472Z,99.90
2018-06-28T00:22:20.140Z,99.90
2018-06-28T00:24:48.903Z,99.90
2018-06-28T00:27:18.315Z,99.90
2018-06-28T00:29:46.973Z,99.90
2018-06-28T00:32:15.654Z,99.90
2018-06-28T00:34:44.347Z,99.90
2018-06-28T00:37:12.979Z,99.90
2018-06-28T00:39:41.737Z,99.90
2018-06-28T00:42:10.428Z,99.90
2018-06-28T00:44:39.118Z,99.90
2018-06-28T00:47:07.766Z,99.90
2018-06-28T00:49:36.411Z,99.90
2018-06-28T00:52:05.098Z,99.90
2018-06-28T00:54:33.854Z,99.90
2018-06-28T00:57:02.539Z,99.90
2018-06-28T00:59:31.224Z,99.90
2018-06-28T01:01:59.889Z,99.90
2018-06-28T01:04:28.553Z,99.90
2018-06-28T01:06:57.295Z,99.90
2018-06-28T01:09:25.962Z,99.90
2018-06-28T01:11:54.757Z,99.90
2018-06-28T01:14:23.445Z,99.90
2018-06-28T01:16:52.329Z,99.90
2018-06-28T01:19:21.045Z,99.90
2018-06-28T01:21:50.594Z,99.90
2018-06-28T01:26:47.691Z,99.90
2018-06-28T01:29:16.453Z,99.90
2018-06-28T01:31:45.436Z,99.90
2018-06-28T01:34:14.122Z,99.90
2018-06-28T01:36:42.953Z,99.90
2018-06-28T01:39:12.356Z,99.90
2018-06-28T01:41:52.957Z,99.90
2018-06-28T01:44:21.609Z,99.90
2018-06-28T01:46:50.529Z,99.90
2018-06-28T01:49:19.320Z,99.90
2018-06-28T01:51:48.008Z,99.90
2018-06-28T01:54:16.970Z,99.90
2018-06-28T01:56:45.623Z,99.90
2018-06-28T01:59:14.319Z,99.90
2018-06-28T02:01:42.935Z,99.90
2018-06-28T02:04:11.633Z,99.90
2018-06-28T02:06:40.324Z,99.90
2018-06-28T02:09:10.457Z,99.90
2018-06-28T02:11:39.110Z,99.90
2018-06-28T02:14:07.815Z,99.90
2018-06-28T02:16:36.490Z,99.90
2018-06-28T02:19:05.238Z,99.90
2018-06-28T02:21:33.962Z,99.90
2018-06-28T02:24:02.660Z,99.90
2018-06-28T02:26:31.334Z,99.90
2018-06-28T02:29:00.940Z,99.90
2018-06-28T02:31:32.608Z,99.90
2018-06-28T02:34:01.284Z,99.90
2018-06-28T02:36:29.894Z,99.90
2018-06-28T02:38:58.541Z,99.90
2018-06-28T02:41:27.192Z,99.90
2018-06-28T02:43:55.824Z,99.90
2018-06-28T02:46:24.516Z,99.90
2018-06-28T02:48:53.132Z,99.90
2018-06-28T02:51:21.756Z,99.90
2018-06-28T02:53:50.439Z,99.90
2018-06-28T02:56:19.135Z,99.90
2018-06-28T02:58:47.803Z,99.90
2018-06-28T03:01:16.482Z,99.90
2018-06-28T03:03:45.257Z,99.90
2018-06-28T03:06:13.869Z,99.90
2018-06-28T03:08:42.484Z,99.90
2018-06-28T03:11:11.102Z,99.90
2018-06-28T03:13:42.673Z,99.90
2018-06-28T03:16:11.327Z,99.90
2018-06-28T03:18:39.956Z,99.90
2018-06-28T03:21:08.815Z,99.90
2018-06-28T03:23:37.451Z,99.90
2018-06-28T03:26:06.143Z,99.90
2018-06-28T03:28:34.856Z,99.90
2018-06-28T03:31:03.688Z,99.90
2018-06-28T03:33:32.413Z,99.90
2018-06-28T03:36:01.071Z,99.90
2018-06-28T03:38:29.742Z,99.90
2018-06-28T03:40:58.506Z,99.90
2018-06-28T03:43:27.278Z,99.90
2018-06-28T03:45:56.001Z,99.90
2018-06-28T03:48:24.700Z,99.90
2018-06-28T03:50:53.470Z,99.90
2018-06-28T03:53:22.151Z,99.90
2018-06-28T03:55:50.786Z,99.90
2018-06-28T03:58:19.533Z,99.90
2018-06-28T04:00:48.429Z,99.90
2018-06-28T04:05:45.510Z,99.90
2018-06-28T04:08:14.439Z,99.90
2018-06-28T04:10:43.075Z,99.90
2018-06-28T04:13:11.750Z,99.90
2018-06-28T04:15:40.379Z,99.90
2018-06-28T04:18:09.033Z,99.90
2018-06-28T04:23:05.971Z,99.90
2018-06-28T04:25:34.567Z,99.90
2018-06-28T04:28:03.209Z,99.90
2018-06-28T04:30:31.858Z,99.90
2018-06-28T04:33:00.632Z,99.90
2018-06-28T04:37:57.657Z,99.90
2018-06-28T04:40:26.320Z,99.90
2018-06-28T04:42:57.687Z,99.90
2018-06-28T04:45:26.458Z,99.90
2018-06-28T04:47:55.173Z,99.90
2018-06-28T04:50:23.991Z,99.90
2018-06-28T04:52:52.694Z,99.90
2018-06-28T04:55:21.392Z,99.90
2018-06-28T04:57:50.029Z,99.90
2018-06-28T05:00:18.935Z,99.90
2018-06-28T05:02:47.646Z,99.90
2018-06-28T05:05:16.477Z,99.90
2018-06-28T05:07:45.184Z,99.90
2018-06-28T05:10:13.871Z,99.90
2018-06-28T05:12:42.536Z,99.90
2018-06-28T05:15:11.244Z,99.90
2018-06-28T05:17:39.944Z,99.90
2018-06-28T05:20:08.612Z,99.90
2018-06-28T05:22:37.252Z,99.90
2018-06-28T05:25:05.955Z,99.90
2018-06-28T05:27:34.607Z,99.90
2018-06-28T05:30:03.359Z,99.90
2018-06-28T05:32:32.210Z,99.90
2018-06-28T05:35:00.937Z,99.90
2018-06-28T05:37:29.647Z,99.80
2018-06-28T05:39:58.407Z,98.80
2018-06-28T05:42:27.172Z,98.40
2018-06-28T05:44:55.907Z,98.00
2018-06-28T05:47:24.545Z,97.40
2018-06-28T05:49:53.278Z,97.20
2018-06-28T05:57:18.676Z,96.10
2018-06-28T05:59:47.344Z,96.50
2018-06-28T06:02:16.006Z,96.10
2018-06-28T06:04:44.703Z,95.60
2018-06-28T06:07:13.443Z,95.20
2018-06-28T06:09:42.263Z,95.30
2018-06-28T06:12:11.012Z,95.70
2018-06-28T06:14:39.706Z,95.10
2018-06-28T06:17:08.452Z,94.10
2018-06-28T06:19:37.356Z,94.50
2018-06-28T06:22:05.946Z,94.20
2018-06-28T06:24:34.774Z,94.60
2018-06-28T06:27:03.490Z,94.30
2018-06-28T06:29:32.480Z,93.30
2018-06-28T06:32:01.174Z,92.90
2018-06-28T06:34:30.050Z,92.30
2018-06-28T06:36:58.724Z,91.30
2018-06-28T06:39:27.588Z,90.60
2018-06-28T06:41:56.321Z,90.40
2018-06-28T06:44:25.057Z,90.10
2018-06-28T06:46:53.870Z,89.90
2018-06-28T06:49:22.753Z,90.00
2018-06-28T06:51:51.496Z,88.00
2018-06-28T06:54:20.162Z,87.40
2018-06-28T06:56:48.826Z,86.20
2018-06-28T06:59:17.544Z,85.30
2018-06-28T07:01:46.293Z,86.20
2018-06-28T07:04:15.512Z,89.20
2018-06-28T07:06:44.280Z,91.10
2018-06-28T07:09:13.744Z,92.20
2018-06-28T07:11:42.630Z,94.00
2018-06-28T07:14:12.036Z,94.50
2018-06-28T07:16:41.071Z,95.30
2018-06-28T07:19:09.867Z,95.40
2018-06-28T07:21:38.641Z,96.60
2018-06-28T07:24:07.392Z,97.10
2018-06-28T07:26:36.182Z,97.70
2018-06-28T07:29:05.114Z,97.90
2018-06-28T07:31:33.887Z,97.60
2018-06-28T07:34:02.800Z,97.70
2018-06-28T07:36:31.414Z,97.80
2018-06-28T07:39:00.217Z,98.10
2018-06-28T07:41:28.882Z,97.40
2018-06-28T07:43:57.541Z,97.60
2018-06-28T07:46:26.347Z,98.00
2018-06-28T07:51:23.752Z,97.20
2018-06-28T07:53:52.499Z,97.40
2018-06-28T07:56:21.128Z,97.40
2018-06-28T07:58:49.908Z,96.60
2018-06-28T08:01:18.575Z,97.10
2018-06-28T08:03:47.374Z,97.00
2018-06-28T08:06:16.317Z,96.50
2018-06-28T08:08:45.102Z,96.30
2018-06-28T08:11:13.985Z,96.30
2018-06-28T08:13:42.668Z,96.30
2018-06-28T08:16:11.456Z,96.90
2018-06-28T08:18:40.295Z,96.40
2018-06-28T08:21:09.472Z,96.50
2018-06-28T08:23:38.178Z,96.40
2018-06-28T08:28:35.249Z,95.80
2018-06-28T08:31:03.996Z,95.70
2018-06-28T08:33:32.702Z,95.50
2018-06-28T08:36:01.357Z,95.50
2018-06-28T08:38:30.149Z,95.40
2018-06-28T08:40:58.767Z,95.30
2018-06-28T08:43:27.613Z,94.30
2018-06-28T08:45:56.361Z,93.90
2018-06-28T08:50:53.744Z,93.90
2018-06-28T08:53:22.597Z,93.90
2018-06-28T08:55:51.329Z,93.40
2018-06-28T08:58:20.126Z,92.80
2018-06-28T09:00:48.862Z,92.20
2018-06-28T09:03:17.629Z,92.90
2018-06-28T09:05:46.342Z,92.90
2018-06-28T09:08:15.543Z,92.70
2018-06-28T09:10:44.447Z,92.70
2018-06-28T09:13:13.199Z,93.00
2018-06-28T09:15:41.928Z,93.40
2018-06-28T09:18:10.572Z,93.50
2018-06-28T09:20:39.658Z,93.20
2018-06-28T09:23:08.427Z,92.60
2018-06-28T09:25:37.206Z,92.60
2018-06-28T09:28:06.190Z,92.60
2018-06-28T09:30:35.180Z,92.70
2018-06-28T09:33:04.083Z,92.60
2018-06-28T09:35:32.858Z,92.40
2018-06-28T09:38:01.620Z,92.60
2018-06-28T09:40:30.416Z,92.70
2018-06-28T09:42:59.159Z,92.40
2018-06-28T09:45:27.887Z,92.50
2018-06-28T09:47:56.705Z,92.60
2018-06-28T09:50:25.646Z,92.60
2018-06-28T09:52:54.356Z,91.60
2018-06-28T09:55:23.304Z,91.60
2018-06-28T09:57:52.158Z,91.40
2018-06-28T10:00:26.349Z,91.50
2018-06-28T10:02:54.941Z,91.60
2018-06-28T10:05:23.628Z,91.40
2018-06-28T10:07:52.842Z,91.30
2018-06-28T10:12:49.877Z,91.60
2018-06-28T10:15:18.489Z,91.50
2018-06-28T10:17:47.272Z,91.70
2018-06-28T10:20:15.969Z,91.10
2018-06-28T10:22:44.897Z,91.40
2018-06-28T10:25:13.681Z,91.70
2018-06-28T10:27:42.368Z,92.00
2018-06-28T10:30:11.107Z,91.70
2018-06-28T10:32:39.991Z,92.00
2018-06-28T10:35:08.711Z,91.90
2018-06-28T10:37:37.413Z,91.70
2018-06-28T10:40:06.549Z,91.10
2018-06-28T10:42:35.288Z,91.60
2018-06-28T10:45:04.162Z,91.60
2018-06-28T10:47:32.884Z,91.10
2018-06-28T10:50:01.634Z,91.10
2018-06-28T10:52:30.522Z,91.60
2018-06-28T10:55:01.790Z,91.60
2018-06-28T10:57:30.793Z,91.90
2018-06-28T10:59:59.517Z,92.10
2018-06-28T11:02:28.365Z,92.20
2018-06-28T11:04:57.849Z,91.70
2018-06-28T11:07:26.890Z,91.30
2018-06-28T11:09:55.631Z,90.70
2018-06-28T11:12:24.781Z,91.40
2018-06-28T11:14:53.917Z,91.40
2018-06-28T11:17:22.916Z,91.30
2018-06-28T11:19:51.809Z,91.40
2018-06-28T11:22:20.659Z,90.90
2018-06-28T11:24:49.499Z,90.90
2018-06-28T11:27:18.209Z,90.60
2018-06-28T11:29:46.986Z,90.40
2018-06-28T11:32:15.986Z,90.30
2018-06-28T11:34:44.735Z,90.00
2018-06-28T11:37:13.526Z,90.30
2018-06-28T11:39:42.242Z,90.40
2018-06-28T11:42:11.289Z,90.90
2018-06-28T11:44:40.023Z,90.60
2018-06-28T11:47:08.707Z,90.80
2018-06-28T11:49:37.383Z,90.80
2018-06-28T11:52:06.288Z,90.70
2018-06-28T11:54:35.151Z,90.50
2018-06-28T11:57:03.895Z,90.50
2018-06-28T11:59:32.582Z,90.00
2018-06-28T12:02:01.368Z,90.40
2018-06-28T12:04:30.103Z,90.60
2018-06-28T12:06:58.884Z,90.80
2018-06-28T12:09:27.674Z,91.20
2018-06-28T12:11:56.416Z,90.70
2018-06-28T12:14:25.085Z,91.10
2018-06-28T12:16:53.884Z,89.60
2018-06-28T12:19:22.607Z,89.80
2018-06-28T12:21:51.315Z,89.80
2018-06-28T12:24:20.151Z,90.10
2018-06-28T12:26:48.849Z,90.10
2018-06-28T12:29:17.622Z,90.10
2018-06-28T12:31:46.377Z,89.60
2018-06-28T12:34:14.969Z,88.40
2018-06-28T12:36:44.394Z,90.20
2018-06-28T12:39:13.096Z,88.20
2018-06-28T12:41:41.719Z,88.70
2018-06-28T12:44:10.514Z,89.30
2018-06-28T12:47:55.974Z,90.30
2018-06-28T12:50:24.719Z,90.30
2018-06-28T12:52:55.987Z,90.80
2018-06-28T12:55:25.454Z,90.50
2018-06-28T12:57:55.565Z,89.60
2018-06-28T13:00:24.397Z,90.10
2018-06-28T13:02:53.239Z,89.40
2018-06-28T13:05:21.920Z,89.10
2018-06-28T13:07:50.632Z,90.00
2018-06-28T13:10:19.681Z,89.40
2018-06-28T13:12:48.716Z,89.10
2018-06-28T13:15:17.440Z,89.40
2018-06-28T13:17:46.229Z,88.30
2018-06-28T13:20:15.097Z,87.30
2018-06-28T13:22:43.844Z,87.10
2018-06-28T13:25:12.744Z,86.90
2018-06-28T13:27:41.458Z,87.20
2018-06-28T13:30:12.890Z,87.80
2018-06-28T13:32:41.643Z,86.90
2018-06-28T13:35:10.517Z,86.80
2018-06-28T13:37:39.135Z,86.20
2018-06-28T13:40:07.958Z,86.30
2018-06-28T13:42:36.668Z,85.40
2018-06-28T13:45:05.330Z,85.50
2018-06-28T13:47:34.025Z,85.90
2018-06-28T13:50:02.727Z,85.80
2018-06-28T13:52:31.513Z,84.30
2018-06-28T13:55:00.252Z,84.20
2018-06-28T13:57:29.312Z,84.80
2018-06-28T13:59:58.205Z,83.20
2018-06-28T14:02:26.893Z,82.20
2018-06-28T14:04:55.646Z,82.80
2018-06-28T14:07:24.529Z,83.70
2018-06-28T14:09:53.326Z,83.80
2018-06-28T14:12:22.612Z,82.20
2018-06-28T14:14:51.623Z,83.20
2018-06-28T14:17:24.514Z,85.40
2018-06-28T14:19:53.304Z,86.20
2018-06-28T14:22:22.150Z,84.60
2018-06-28T14:24:51.267Z,84.60
2018-06-28T14:27:20.339Z,85.00
2018-06-28T14:29:49.194Z,85.70
2018-06-28T14:32:18.150Z,87.10
2018-06-28T14:34:47.216Z,86.40
2018-06-28T14:37:16.779Z,87.00
2018-06-28T14:39:46.255Z,86.40
2018-06-28T14:42:15.264Z,85.30
2018-06-28T14:44:44.277Z,84.70
2018-06-28T14:47:13.211Z,83.90
2018-06-28T14:49:42.413Z,85.20
2018-06-28T14:52:11.693Z,85.40
2018-06-28T14:54:40.490Z,85.10
2018-06-28T14:57:10.051Z,85.30
2018-06-28T14:59:38.869Z,84.90
2018-06-28T15:02:07.736Z,85.30
2018-06-28T15:04:36.571Z,85.30
2018-06-28T15:07:05.395Z,84.30
2018-06-28T15:09:34.298Z,84.20
2018-06-28T15:12:03.027Z,83.90
2018-06-28T15:14:31.726Z,85.70
2018-06-28T15:17:00.343Z,84.80
2018-06-28T15:19:29.110Z,85.20
2018-06-28T15:21:57.813Z,85.50
2018-06-28T15:24:26.926Z,86.80
2018-06-28T15:26:55.754Z,86.10
2018-06-28T15:31:52.955Z,85.10
2018-06-28T15:34:21.608Z,84.80
2018-06-28T15:36:50.341Z,85.10
2018-06-28T15:39:19.290Z,84.50
2018-06-28T15:44:16.427Z,84.20
2018-06-28T15:46:45.297Z,84.10
2018-06-28T15:49:14.021Z,84.20
2018-06-28T15:51:42.794Z,84.40
2018-06-28T15:54:11.715Z,84.00
2018-06-28T15:56:40.635Z,84.70
2018-06-28T15:59:09.622Z,84.10
2018-06-28T16:01:38.227Z,83.60
2018-06-28T16:04:07.892Z,84.00
2018-06-28T16:06:36.642Z,82.60
2018-06-28T16:09:08.165Z,83.00
2018-06-28T16:11:36.921Z,83.40
2018-06-28T16:14:05.593Z,83.70
2018-06-28T16:16:34.426Z,83.20
2018-06-28T16:19:03.137Z,84.70
2018-06-28T16:21:31.834Z,83.60
2018-06-28T16:24:00.599Z,83.10
2018-06-28T16:26:29.272Z,83.60
2018-06-28T16:28:58.156Z,82.70
2018-06-28T16:31:27.002Z,82.20
2018-06-28T16:33:55.860Z,81.40
2018-06-28T16:36:24.696Z,81.80
2018-06-28T16:38:53.335Z,80.80
2018-06-28T16:41:22.123Z,81.00
2018-06-28T16:43:50.951Z,82.20
2018-06-28T16:46:19.701Z,83.50
2018-06-28T16:48:48.435Z,84.00
2018-06-28T16:51:17.191Z,83.90
2018-06-28T16:53:45.915Z,83.90
2018-06-28T16:56:14.612Z,83.70
2018-06-28T16:58:43.436Z,83.50
2018-06-28T17:01:12.422Z,83.60
2018-06-28T17:03:41.133Z,84.40
2018-06-28T17:06:10.108Z,82.80
2018-06-28T17:08:39.683Z,80.40
2018-06-28T17:11:08.496Z,78.10
2018-06-28T17:13:37.244Z,76.20
2018-06-28T17:16:06.067Z,74.40
2018-06-28T17:18:34.753Z,72.90
2018-06-28T17:21:03.536Z,71.60
2018-06-28T17:23:32.400Z,71.30
2018-06-28T17:26:01.065Z,71.00
2018-06-28T17:28:29.808Z,68.80
2018-06-28T17:30:58.489Z,65.30
2018-06-28T17:33:27.259Z,64.60
2018-06-28T17:35:56.016Z,62.40
2018-06-28T17:38:24.828Z,60.40
2018-06-28T17:40:53.645Z,59.90
2018-06-28T17:43:22.462Z,60.40
2018-06-28T17:45:51.136Z,60.00
2018-06-28T17:48:19.843Z,59.70
2018-06-28T17:50:48.511Z,59.30
2018-06-28T17:53:17.177Z,59.20
2018-06-28T17:55:46.227Z,59.40
2018-06-28T17:58:14.907Z,59.50
2018-06-28T18:00:43.681Z,59.90
2018-06-28T18:03:12.519Z,61.70
2018-06-28T18:05:41.363Z,63.50
2018-06-28T18:08:10.094Z,65.00
2018-06-28T18:10:38.759Z,67.30
2018-06-28T18:13:07.581Z,69.20
2018-06-28T18:15:36.380Z,71.30
2018-06-28T18:18:05.175Z,72.80
2018-06-28T18:20:33.955Z,73.70
2018-06-28T18:23:02.658Z,75.30
2018-06-28T18:25:31.358Z,74.70
2018-06-28T18:28:00.121Z,75.80
2018-06-28T18:30:28.820Z,76.40
2018-06-28T18:32:57.565Z,76.90
2018-06-28T18:35:26.264Z,77.70
2018-06-28T18:37:55.149Z,78.40
2018-06-28T18:40:23.909Z,78.40
2018-06-28T18:42:52.570Z,79.00
2018-06-28T18:45:21.265Z,79.30
2018-06-28T18:47:50.042Z,79.80
2018-06-28T18:50:18.771Z,80.40
2018-06-28T18:52:47.507Z,81.00
2018-06-28T18:55:16.247Z,81.30
2018-06-28T18:57:44.877Z,82.00
2018-06-28T19:00:13.691Z,82.80
2018-06-28T19:02:42.337Z,83.60
2018-06-28T19:05:11.076Z,83.60
2018-06-28T19:07:39.827Z,83.90
2018-06-28T19:10:14.070Z,84.60
2018-06-28T19:12:42.725Z,85.00
2018-06-28T19:15:16.778Z,85.50
2018-06-28T19:17:45.453Z,86.20
2018-06-28T19:20:14.215Z,87.60
2018-06-28T19:22:48.072Z,87.40
2018-06-28T19:25:16.828Z,88.10
2018-06-28T19:27:45.755Z,88.60
2018-06-28T19:32:48.412Z,89.40
2018-06-28T19:35:17.181Z,89.60
2018-06-28T19:37:49.031Z,90.00
2018-06-28T19:40:22.943Z,90.20
2018-06-28T19:42:57.625Z,90.30
2018-06-28T19:45:26.434Z,90.60
2018-06-28T19:47:55.205Z,90.80
2018-06-28T19:50:29.240Z,90.90
2018-06-28T19:53:07.202Z,91.10
2018-06-28T19:55:35.948Z,91.30
2018-06-28T19:58:04.894Z,91.60
2018-06-28T20:00:38.580Z,91.70
2018-06-28T20:03:12.576Z,91.80
2018-06-28T20:05:41.401Z,91.90
2018-06-28T20:08:11.065Z,92.20
2018-06-28T20:10:40.333Z,92.50
2018-06-28T20:13:14.363Z,92.70
2018-06-28T20:15:54.548Z,93.00
2018-06-28T20:18:28.548Z,93.20
2018-06-28T20:20:58.666Z,93.40
2018-06-28T20:23:27.829Z,93.50
2018-06-28T20:25:56.601Z,93.80
2018-06-28T20:28:30.727Z,93.80
2018-06-28T20:31:04.775Z,94.10
2018-06-28T20:33:38.852Z,94.30
2018-06-28T20:36:07.550Z,94.40
2018-06-28T20:41:04.567Z,94.90
2018-06-28T20:43:33.414Z,95.00
2018-06-28T20:46:02.323Z,95.20
2018-06-28T20:48:31.268Z,95.40
2018-06-28T20:50:59.964Z,95.60
2018-06-28T20:53:28.750Z,95.90
2018-06-28T20:55:57.578Z,96.20
2018-06-28T20:58:26.464Z,96.50
2018-06-28T21:00:55.194Z,96.80
2018-06-28T21:03:24.002Z,97.00
2018-06-28T21:05:52.760Z,97.20
2018-06-28T21:08:22.027Z,97.50
2018-06-28T21:10:50.726Z,97.80
2018-06-28T21:13:19.348Z,98.10
2018-06-28T21:15:48.118Z,98.30
2018-06-28T21:18:17.017Z,98.60
2018-06-28T21:20:46.667Z,99.00
2018-06-28T21:23:15.446Z,99.30
2018-06-28T21:25:44.331Z,99.60
2018-06-28T21:28:13.174Z,99.90
2018-06-28T21:30:42.062Z,99.90
2018-06-28T21:33:10.787Z,99.90
2018-06-28T21:35:39.566Z,99.90
2018-06-28T21:38:08.318Z,99.90
2018-06-28T21:40:37.244Z,99.90
2018-06-28T21:43:05.996Z,99.90
2018-06-28T21:45:34.924Z,99.90
2018-06-28T21:48:04.222Z,99.90
2018-06-28T21:50:32.968Z,99.90
2018-06-28T21:53:02.269Z,99.90
2018-06-28T21:55:31.084Z,99.90
2018-06-28T21:57:59.816Z,99.90
2018-06-28T22:00:32.192Z,99.90
2018-06-28T22:03:05.281Z,99.90
2018-06-28T22:05:34.394Z,99.90
2018-06-28T22:08:06.569Z,99.90
2018-06-28T22:10:35.227Z,99.90
2018-06-28T22:13:03.895Z,99.90
2018-06-28T22:15:32.891Z,99.90
2018-06-28T22:18:03.112Z,99.90
2018-06-28T22:20:33.092Z,99.90
2018-06-28T22:23:01.840Z,99.90
2018-06-28T22:25:31.215Z,99.90
2018-06-28T22:27:59.950Z,99.90
2018-06-28T22:30:28.708Z,99.90
2018-06-28T22:32:57.300Z,99.90
2018-06-28T22:35:25.939Z,99.90
2018-06-28T22:37:54.576Z,99.90
2018-06-28T22:40:23.300Z,99.90
2018-06-28T22:42:52.762Z,99.90
2018-06-28T22:47:49.780Z,99.90
2018-06-28T22:50:18.521Z,99.90
2018-06-28T22:52:47.142Z,99.90
2018-06-28T22:55:15.754Z,99.90
2018-06-28T22:57:44.424Z,99.90
2018-06-28T23:00:18.106Z,99.90
2018-06-28T23:02:46.731Z,99.90
2018-06-28T23:05:15.401Z,99.90
2018-06-28T23:07:44.171Z,99.90
2018-06-28T23:10:12.855Z,99.90
2018-06-28T23:12:41.461Z,99.90
2018-06-28T23:15:10.143Z,99.90
2018-06-28T23:17:38.737Z,99.90
2018-06-28T23:20:07.467Z,99.90
2018-06-28T23:22:46.115Z,99.90
2018-06-28T23:25:15.370Z,99.90
2018-06-28T23:30:13.975Z,99.90
2018-06-28T23:32:42.640Z,99.90
2018-06-28T23:35:11.320Z,99.90
2018-06-28T23:37:40.081Z,99.90
2018-06-28T23:40:15.340Z,99.90
2018-06-28T23:42:43.956Z,99.90
2018-06-28T23:45:12.638Z,99.90
2018-06-28T23:47:41.391Z,99.90
2018-06-28T23:50:10.506Z,99.90
2018-06-28T23:52:39.132Z,99.90
2018-06-28T23:55:08.194Z,99.90
2018-06-28T23:57:36.871Z,99.90
